Strona główna
METAR-TAF:

METAR-TAF

Lotnisko :

Front Royal, Wirginia, Stany Zjednoczone

Szerokość geograficzna: 38-55-03N, Długość geograficzna: 078-15-12W, wysokość: 216 m

Aktualna obserwacja pogody

Raport powstał 26 minut temu, godzina 08:35 UTC
Wiatr 5 kt od zachodnio-południowy zachód
Temperatura 7°C
Wilgotność 61%
Ciśnienie 1007 hPa
Widzialność: 16.1 km
Zachmurzenie całkowite na wysokości 4800 ft

METAR: KFRR 150835Z AUTO 25005KT 10SM OVC048 07/00 A2975 RMK AO1

czas: 04:01 (09:01 UTC)


TAF: brakujący

Obserwacja i prognoza pogody dla ponad 4000 lotnisk (raport METAR i TAF).

Dostępne stacje oznaczono żółtymi i czerwonymi punktami na mapie.

Najedź kursorem aby zobaczyć nazwę stacji.

Kliknij aby zobaczyć obserwacje i prognozy pogody.

Aby zmienić mapę: kliknij na zielony przycisk z czarnym krzyżykiem, aby powiększyć; na zielony przycisk z myślnikiem, aby pomniejszyć; na zielone strzałki, aby przejść do map sąsiednich.


METAR-TAF: